sensor_id;sensor_type;location;lat;lon;timestamp;temperature;humidity
5697;DHT22;2873;50.966;7.210;2023-08-20T00:01:45;24.10;99.90
5697;DHT22;2873;50.966;7.210;2023-08-20T00:04:12;24.10;99.90
5697;DHT22;2873;50.966;7.210;2023-08-20T00:06:38;24.10;99.90
5697;DHT22;2873;50.966;7.210;2023-08-20T00:09:04;24.10;99.90
5697;DHT22;2873;50.966;7.210;2023-08-20T00:11:32;24.00;99.90
5697;DHT22;2873;50.966;7.210;2023-08-20T00:13:58;24.00;99.90
5697;DHT22;2873;50.966;7.210;2023-08-20T00:16:23;24.10;99.90
5697;DHT22;2873;50.966;7.210;2023-08-20T00:18:49;23.90;99.90
5697;DHT22;2873;50.966;7.210;2023-08-20T00:21:15;23.90;99.90
5697;DHT22;2873;50.966;7.210;2023-08-20T00:23:41;24.00;99.90
5697;DHT22;2873;50.966;7.210;2023-08-20T00:26:06;24.00;99.90
5697;DHT22;2873;50.966;7.210;2023-08-20T00:28:32;23.70;99.90
5697;DHT22;2873;50.966;7.210;2023-08-20T00:31:02;23.70;99.90
5697;DHT22;2873;50.966;7.210;2023-08-20T00:33:28;23.70;99.90
5697;DHT22;2873;50.966;7.210;2023-08-20T00:35:53;23.80;99.90
5697;DHT22;2873;50.966;7.210;2023-08-20T00:38:19;23.80;99.90
5697;DHT22;2873;50.966;7.210;2023-08-20T00:40:45;23.80;99.90
5697;DHT22;2873;50.966;7.210;2023-08-20T00:43:10;23.70;99.90
5697;DHT22;2873;50.966;7.210;2023-08-20T00:45:36;23.90;99.90
5697;DHT22;2873;50.966;7.210;2023-08-20T00:48:04;23.80;99.90
5697;DHT22;2873;50.966;7.210;2023-08-20T00:50:30;23.70;99.90
5697;DHT22;2873;50.966;7.210;2023-08-20T00:52:55;23.80;99.90
5697;DHT22;2873;50.966;7.210;2023-08-20T00:55:21;23.50;99.90
5697;DHT22;2873;50.966;7.210;2023-08-20T00:57:47;23.70;99.90
5697;DHT22;2873;50.966;7.210;2023-08-20T01:00:12;23.70;99.90
5697;DHT22;2873;50.966;7.210;2023-08-20T01:02:39;23.70;99.90
5697;DHT22;2873;50.966;7.210;2023-08-20T01:05:08;23.70;99.90
5697;DHT22;2873;50.966;7.210;2023-08-20T01:07:58;23.60;99.90
5697;DHT22;2873;50.966;7.210;2023-08-20T01:10:47;23.60;99.90
5697;DHT22;2873;50.966;7.210;2023-08-20T01:13:16;23.50;99.90
5697;DHT22;2873;50.966;7.210;2023-08-20T01:15:42;23.50;99.90
5697;DHT22;2873;50.966;7.210;2023-08-20T01:18:07;23.40;99.90
5697;DHT22;2873;50.966;7.210;2023-08-20T01:20:37;23.40;99.90
5697;DHT22;2873;50.966;7.210;2023-08-20T01:26:07;23.30;99.90
5697;DHT22;2873;50.966;7.210;2023-08-20T01:28:36;23.30;99.90
5697;DHT22;2873;50.966;7.210;2023-08-20T01:31:03;23.30;99.90
5697;DHT22;2873;50.966;7.210;2023-08-20T01:33:29;23.00;99.90
5697;DHT22;2873;50.966;7.210;2023-08-20T01:35:55;23.20;99.90
5697;DHT22;2873;50.966;7.210;2023-08-20T01:38:21;23.10;99.90
5697;DHT22;2873;50.966;7.210;2023-08-20T01:40:47;23.20;99.90
5697;DHT22;2873;50.966;7.210;2023-08-20T01:43:13;23.10;99.90
5697;DHT22;2873;50.966;7.210;2023-08-20T01:45:39;23.10;99.90
5697;DHT22;2873;50.966;7.210;2023-08-20T01:48:04;23.10;99.90
5697;DHT22;2873;50.966;7.210;2023-08-20T01:50:31;23.00;99.90
5697;DHT22;2873;50.966;7.210;2023-08-20T01:52:56;23.00;99.90
5697;DHT22;2873;50.966;7.210;2023-08-20T01:55:22;23.00;99.90
5697;DHT22;2873;50.966;7.210;2023-08-20T01:57:47;23.10;99.90
5697;DHT22;2873;50.966;7.210;2023-08-20T02:00:13;23.00;99.90
5697;DHT22;2873;50.966;7.210;2023-08-20T02:02:39;23.00;99.90
5697;DHT22;2873;50.966;7.210;2023-08-20T02:05:04;23.00;99.90
5697;DHT22;2873;50.966;7.210;2023-08-20T02:07:30;23.10;99.90
5697;DHT22;2873;50.966;7.210;2023-08-20T02:09:56;23.00;99.90
5697;DHT22;2873;50.966;7.210;2023-08-20T02:12:21;22.90;99.90
5697;DHT22;2873;50.966;7.210;2023-08-20T02:14:47;22.90;99.90
5697;DHT22;2873;50.966;7.210;2023-08-20T02:17:12;22.90;99.90
5697;DHT22;2873;50.966;7.210;2023-08-20T02:19:38;23.10;99.90
5697;DHT22;2873;50.966;7.210;2023-08-20T02:22:04;23.00;99.90
5697;DHT22;2873;50.966;7.210;2023-08-20T02:24:30;23.00;99.90
5697;DHT22;2873;50.966;7.210;2023-08-20T02:26:55;23.10;99.90
5697;DHT22;2873;50.966;7.210;2023-08-20T02:29:21;23.10;99.90
5697;DHT22;2873;50.966;7.210;2023-08-20T02:31:46;23.10;99.90
5697;DHT22;2873;50.966;7.210;2023-08-20T02:34:12;23.00;99.90
5697;DHT22;2873;50.966;7.210;2023-08-20T02:36:37;23.00;99.90
5697;DHT22;2873;50.966;7.210;2023-08-20T02:39:03;23.00;99.90
5697;DHT22;2873;50.966;7.210;2023-08-20T02:41:34;23.00;99.90
5697;DHT22;2873;50.966;7.210;2023-08-20T02:44:00;23.10;99.90
5697;DHT22;2873;50.966;7.210;2023-08-20T02:46:25;23.00;99.90
5697;DHT22;2873;50.966;7.210;2023-08-20T02:48:51;23.10;99.90
5697;DHT22;2873;50.966;7.210;2023-08-20T02:51:16;23.10;99.90
5697;DHT22;2873;50.966;7.210;2023-08-20T02:53:42;23.10;99.90
5697;DHT22;2873;50.966;7.210;2023-08-20T02:56:07;23.10;99.90
5697;DHT22;2873;50.966;7.210;2023-08-20T02:58:33;23.10;99.90
5697;DHT22;2873;50.966;7.210;2023-08-20T03:00:58;23.10;99.90
5697;DHT22;2873;50.966;7.210;2023-08-20T03:03:24;23.10;99.90
5697;DHT22;2873;50.966;7.210;2023-08-20T03:05:50;23.10;99.90
5697;DHT22;2873;50.966;7.210;2023-08-20T03:08:16;23.20;99.90
5697;DHT22;2873;50.966;7.210;2023-08-20T03:10:41;23.10;99.90
5697;DHT22;2873;50.966;7.210;2023-08-20T03:13:07;23.30;99.90
5697;DHT22;2873;50.966;7.210;2023-08-20T03:15:32;23.10;99.90
5697;DHT22;2873;50.966;7.210;2023-08-20T03:17:58;23.30;99.90
5697;DHT22;2873;50.966;7.210;2023-08-20T03:20:23;23.10;99.90
5697;DHT22;2873;50.966;7.210;2023-08-20T03:22:49;22.80;99.90
5697;DHT22;2873;50.966;7.210;2023-08-20T03:25:14;22.70;99.90
5697;DHT22;2873;50.966;7.210;2023-08-20T03:27:41;22.70;99.90
5697;DHT22;2873;50.966;7.210;2023-08-20T03:30:06;22.80;99.90
5697;DHT22;2873;50.966;7.210;2023-08-20T03:32:32;22.80;99.90
5697;DHT22;2873;50.966;7.210;2023-08-20T03:34:58;22.90;99.90
5697;DHT22;2873;50.966;7.210;2023-08-20T03:37:25;22.90;99.90
5697;DHT22;2873;50.966;7.210;2023-08-20T03:39:51;22.90;99.90
5697;DHT22;2873;50.966;7.210;2023-08-20T03:42:16;22.90;99.90
5697;DHT22;2873;50.966;7.210;2023-08-20T03:44:42;22.90;99.90
5697;DHT22;2873;50.966;7.210;2023-08-20T03:47:08;22.90;99.90
5697;DHT22;2873;50.966;7.210;2023-08-20T03:49:33;22.90;99.90
5697;DHT22;2873;50.966;7.210;2023-08-20T03:51:59;22.90;99.90
5697;DHT22;2873;50.966;7.210;2023-08-20T03:54:30;22.80;99.90
5697;DHT22;2873;50.966;7.210;2023-08-20T03:56:55;22.60;99.90
5697;DHT22;2873;50.966;7.210;2023-08-20T03:59:21;22.60;99.90
5697;DHT22;2873;50.966;7.210;2023-08-20T04:01:47;22.70;99.90
5697;DHT22;2873;50.966;7.210;2023-08-20T04:04:13;22.70;99.90
5697;DHT22;2873;50.966;7.210;2023-08-20T04:06:38;22.70;99.90
5697;DHT22;2873;50.966;7.210;2023-08-20T04:09:04;22.80;99.90
5697;DHT22;2873;50.966;7.210;2023-08-20T04:11:31;22.80;99.90
5697;DHT22;2873;50.966;7.210;2023-08-20T04:13:56;22.80;99.90
5697;DHT22;2873;50.966;7.210;2023-08-20T04:16:22;22.80;99.90
5697;DHT22;2873;50.966;7.210;2023-08-20T04:18:47;22.70;99.90
5697;DHT22;2873;50.966;7.210;2023-08-20T04:21:13;22.70;99.90
5697;DHT22;2873;50.966;7.210;2023-08-20T04:23:39;22.70;99.90
5697;DHT22;2873;50.966;7.210;2023-08-20T04:26:05;22.60;99.90
5697;DHT22;2873;50.966;7.210;2023-08-20T04:28:30;22.70;99.90
5697;DHT22;2873;50.966;7.210;2023-08-20T04:30:56;22.70;99.90
5697;DHT22;2873;50.966;7.210;2023-08-20T04:33:22;22.60;99.90
5697;DHT22;2873;50.966;7.210;2023-08-20T04:35:49;22.60;99.90
5697;DHT22;2873;50.966;7.210;2023-08-20T04:38:16;22.50;99.90
5697;DHT22;2873;50.966;7.210;2023-08-20T04:40:41;22.50;99.90
5697;DHT22;2873;50.966;7.210;2023-08-20T04:43:07;22.50;99.90
5697;DHT22;2873;50.966;7.210;2023-08-20T04:45:32;22.50;99.90
5697;DHT22;2873;50.966;7.210;2023-08-20T04:47:59;22.30;99.90
5697;DHT22;2873;50.966;7.210;2023-08-20T04:50:25;22.30;99.90
5697;DHT22;2873;50.966;7.210;2023-08-20T04:52:50;22.30;99.90
5697;DHT22;2873;50.966;7.210;2023-08-20T04:55:16;22.40;99.90
5697;DHT22;2873;50.966;7.210;2023-08-20T04:57:42;22.30;99.90
5697;DHT22;2873;50.966;7.210;2023-08-20T05:00:07;22.40;99.90
5697;DHT22;2873;50.966;7.210;2023-08-20T05:02:35;22.40;99.90
5697;DHT22;2873;50.966;7.210;2023-08-20T05:05:02;22.40;99.90
5697;DHT22;2873;50.966;7.210;2023-08-20T05:07:27;22.40;99.90
5697;DHT22;2873;50.966;7.210;2023-08-20T05:09:53;22.40;99.90
5697;DHT22;2873;50.966;7.210;2023-08-20T05:12:18;22.40;99.90
5697;DHT22;2873;50.966;7.210;2023-08-20T05:14:44;22.50;99.90
5697;DHT22;2873;50.966;7.210;2023-08-20T05:17:09;22.50;99.90
5697;DHT22;2873;50.966;7.210;2023-08-20T05:19:35;22.40;99.90
5697;DHT22;2873;50.966;7.210;2023-08-20T05:22:01;22.50;99.90
5697;DHT22;2873;50.966;7.210;2023-08-20T05:24:26;22.50;99.90
5697;DHT22;2873;50.966;7.210;2023-08-20T05:27:27;22.60;99.90
5697;DHT22;2873;50.966;7.210;2023-08-20T05:29:53;22.60;99.90
5697;DHT22;2873;50.966;7.210;2023-08-20T05:32:18;22.70;99.90
5697;DHT22;2873;50.966;7.210;2023-08-20T05:34:44;22.70;99.90
5697;DHT22;2873;50.966;7.210;2023-08-20T05:37:10;22.70;99.90
5697;DHT22;2873;50.966;7.210;2023-08-20T05:39:43;22.70;99.90
5697;DHT22;2873;50.966;7.210;2023-08-20T05:42:09;22.70;99.90
5697;DHT22;2873;50.966;7.210;2023-08-20T05:44:34;22.70;99.90
5697;DHT22;2873;50.966;7.210;2023-08-20T05:47:00;22.70;99.90
5697;DHT22;2873;50.966;7.210;2023-08-20T05:49:27;22.60;99.90
5697;DHT22;2873;50.966;7.210;2023-08-20T05:51:52;22.70;99.90
5697;DHT22;2873;50.966;7.210;2023-08-20T05:54:18;22.70;99.90
5697;DHT22;2873;50.966;7.210;2023-08-20T05:56:43;22.70;99.90
5697;DHT22;2873;50.966;7.210;2023-08-20T05:59:09;22.90;99.90
5697;DHT22;2873;50.966;7.210;2023-08-20T06:01:34;22.70;99.90
5697;DHT22;2873;50.966;7.210;2023-08-20T06:04:00;22.80;99.90
5697;DHT22;2873;50.966;7.210;2023-08-20T06:06:26;22.70;99.90
5697;DHT22;2873;50.966;7.210;2023-08-20T06:08:52;22.80;99.90
5697;DHT22;2873;50.966;7.210;2023-08-20T06:11:19;22.70;99.90
5697;DHT22;2873;50.966;7.210;2023-08-20T06:13:44;22.70;99.90
5697;DHT22;2873;50.966;7.210;2023-08-20T06:16:10;22.80;99.90
5697;DHT22;2873;50.966;7.210;2023-08-20T06:18:35;22.80;99.90
5697;DHT22;2873;50.966;7.210;2023-08-20T06:21:02;22.70;99.90
5697;DHT22;2873;50.966;7.210;2023-08-20T06:23:28;22.70;99.90
5697;DHT22;2873;50.966;7.210;2023-08-20T06:25:53;22.90;99.90
5697;DHT22;2873;50.966;7.210;2023-08-20T06:28:19;22.90;99.90
5697;DHT22;2873;50.966;7.210;2023-08-20T06:30:45;22.90;99.90
5697;DHT22;2873;50.966;7.210;2023-08-20T06:33:11;22.90;99.90
5697;DHT22;2873;50.966;7.210;2023-08-20T06:35:37;23.00;99.90
5697;DHT22;2873;50.966;7.210;2023-08-20T06:38:02;23.00;99.90
5697;DHT22;2873;50.966;7.210;2023-08-20T06:40:28;23.10;99.90
5697;DHT22;2873;50.966;7.210;2023-08-20T06:42:54;23.10;99.90
5697;DHT22;2873;50.966;7.210;2023-08-20T06:45:19;23.10;99.90
5697;DHT22;2873;50.966;7.210;2023-08-20T06:47:45;23.30;99.90
5697;DHT22;2873;50.966;7.210;2023-08-20T06:50:10;23.30;99.90
5697;DHT22;2873;50.966;7.210;2023-08-20T06:52:36;23.40;99.90
5697;DHT22;2873;50.966;7.210;2023-08-20T06:55:01;23.30;99.90
5697;DHT22;2873;50.966;7.210;2023-08-20T06:57:27;23.40;99.90
5697;DHT22;2873;50.966;7.210;2023-08-20T06:59:52;23.40;99.90
5697;DHT22;2873;50.966;7.210;2023-08-20T07:02:18;23.40;99.90
5697;DHT22;2873;50.966;7.210;2023-08-20T07:04:43;23.50;99.90
5697;DHT22;2873;50.966;7.210;2023-08-20T07:07:09;23.60;99.90
5697;DHT22;2873;50.966;7.210;2023-08-20T07:09:35;23.60;99.90
5697;DHT22;2873;50.966;7.210;2023-08-20T07:12:01;23.70;99.90
5697;DHT22;2873;50.966;7.210;2023-08-20T07:14:27;23.70;99.90
5697;DHT22;2873;50.966;7.210;2023-08-20T07:16:52;23.70;99.90
5697;DHT22;2873;50.966;7.210;2023-08-20T07:19:18;23.80;99.90
5697;DHT22;2873;50.966;7.210;2023-08-20T07:21:43;23.80;99.90
5697;DHT22;2873;50.966;7.210;2023-08-20T07:24:09;23.80;99.90
5697;DHT22;2873;50.966;7.210;2023-08-20T07:26:34;23.90;99.90
5697;DHT22;2873;50.966;7.210;2023-08-20T07:29:00;24.00;99.90
5697;DHT22;2873;50.966;7.210;2023-08-20T07:31:30;24.00;99.90
5697;DHT22;2873;50.966;7.210;2023-08-20T07:33:56;24.00;99.90
5697;DHT22;2873;50.966;7.210;2023-08-20T07:36:23;24.00;99.90
5697;DHT22;2873;50.966;7.210;2023-08-20T07:38:50;24.20;99.90
5697;DHT22;2873;50.966;7.210;2023-08-20T07:41:16;24.10;99.90
5697;DHT22;2873;50.966;7.210;2023-08-20T07:43:42;24.30;99.90
5697;DHT22;2873;50.966;7.210;2023-08-20T07:46:09;24.20;99.90
5697;DHT22;2873;50.966;7.210;2023-08-20T07:48:35;24.20;99.90
5697;DHT22;2873;50.966;7.210;2023-08-20T07:51:01;24.30;99.90
5697;DHT22;2873;50.966;7.210;2023-08-20T07:53:28;24.30;99.90
5697;DHT22;2873;50.966;7.210;2023-08-20T07:55:55;24.50;99.90
5697;DHT22;2873;50.966;7.210;2023-08-20T07:58:20;24.40;99.90
5697;DHT22;2873;50.966;7.210;2023-08-20T08:00:46;24.30;99.90
5697;DHT22;2873;50.966;7.210;2023-08-20T08:03:12;24.50;99.90
5697;DHT22;2873;50.966;7.210;2023-08-20T08:05:40;24.60;99.90
5697;DHT22;2873;50.966;7.210;2023-08-20T08:08:06;24.60;99.90
5697;DHT22;2873;50.966;7.210;2023-08-20T08:10:31;24.60;99.90
5697;DHT22;2873;50.966;7.210;2023-08-20T08:12:57;24.70;99.90
5697;DHT22;2873;50.966;7.210;2023-08-20T08:15:22;24.70;99.90
5697;DHT22;2873;50.966;7.210;2023-08-20T08:17:48;24.70;99.90
5697;DHT22;2873;50.966;7.210;2023-08-20T08:20:13;24.70;99.90
5697;DHT22;2873;50.966;7.210;2023-08-20T08:22:39;24.80;99.90
5697;DHT22;2873;50.966;7.210;2023-08-20T08:25:05;24.90;99.90
5697;DHT22;2873;50.966;7.210;2023-08-20T08:27:31;24.90;99.90
5697;DHT22;2873;50.966;7.210;2023-08-20T08:29:57;25.00;99.90
5697;DHT22;2873;50.966;7.210;2023-08-20T08:32:22;25.10;99.90
5697;DHT22;2873;50.966;7.210;2023-08-20T08:34:48;25.20;99.90
5697;DHT22;2873;50.966;7.210;2023-08-20T08:37:13;25.10;99.90
5697;DHT22;2873;50.966;7.210;2023-08-20T08:39:40;25.20;99.90
5697;DHT22;2873;50.966;7.210;2023-08-20T08:42:06;25.20;99.90
5697;DHT22;2873;50.966;7.210;2023-08-20T08:44:33;25.30;99.90
5697;DHT22;2873;50.966;7.210;2023-08-20T08:46:59;25.30;99.90
5697;DHT22;2873;50.966;7.210;2023-08-20T08:49:25;25.30;99.90
5697;DHT22;2873;50.966;7.210;2023-08-20T08:51:52;25.40;99.90
5697;DHT22;2873;50.966;7.210;2023-08-20T08:54:20;25.50;99.90
5697;DHT22;2873;50.966;7.210;2023-08-20T08:56:46;25.50;99.90
5697;DHT22;2873;50.966;7.210;2023-08-20T08:59:12;25.50;99.90
5697;DHT22;2873;50.966;7.210;2023-08-20T09:01:38;25.50;99.90
5697;DHT22;2873;50.966;7.210;2023-08-20T09:04:05;25.60;99.90
5697;DHT22;2873;50.966;7.210;2023-08-20T09:06:51;25.60;99.90
5697;DHT22;2873;50.966;7.210;2023-08-20T09:09:19;25.70;99.90
5697;DHT22;2873;50.966;7.210;2023-08-20T09:11:45;25.70;99.90
5697;DHT22;2873;50.966;7.210;2023-08-20T09:14:27;25.80;99.90
5697;DHT22;2873;50.966;7.210;2023-08-20T09:16:58;25.90;99.90
5697;DHT22;2873;50.966;7.210;2023-08-20T09:19:24;25.90;99.90
5697;DHT22;2873;50.966;7.210;2023-08-20T09:21:53;25.90;99.90
5697;DHT22;2873;50.966;7.210;2023-08-20T09:24:26;26.00;99.90
5697;DHT22;2873;50.966;7.210;2023-08-20T09:26:57;26.10;99.90
5697;DHT22;2873;50.966;7.210;2023-08-20T09:29:24;26.10;99.90
5697;DHT22;2873;50.966;7.210;2023-08-20T09:31:50;26.20;99.90
5697;DHT22;2873;50.966;7.210;2023-08-20T09:34:24;26.20;99.90
5697;DHT22;2873;50.966;7.210;2023-08-20T09:36:50;26.30;99.90
5697;DHT22;2873;50.966;7.210;2023-08-20T09:39:16;26.40;99.90
5697;DHT22;2873;50.966;7.210;2023-08-20T09:41:41;26.60;99.90
5697;DHT22;2873;50.966;7.210;2023-08-20T09:44:08;26.60;99.90
5697;DHT22;2873;50.966;7.210;2023-08-20T09:46:35;26.70;99.90
5697;DHT22;2873;50.966;7.210;2023-08-20T09:49:02;26.70;99.90
5697;DHT22;2873;50.966;7.210;2023-08-20T09:51:32;26.80;99.90
5697;DHT22;2873;50.966;7.210;2023-08-20T09:54:14;26.90;99.90
5697;DHT22;2873;50.966;7.210;2023-08-20T09:56:43;27.10;99.90
5697;DHT22;2873;50.966;7.210;2023-08-20T09:59:12;27.10;99.90
5697;DHT22;2873;50.966;7.210;2023-08-20T10:01:38;27.30;99.90
5697;DHT22;2873;50.966;7.210;2023-08-20T10:04:05;27.40;99.90
5697;DHT22;2873;50.966;7.210;2023-08-20T10:06:33;27.30;99.90
5697;DHT22;2873;50.966;7.210;2023-08-20T10:08:59;27.30;99.90
5697;DHT22;2873;50.966;7.210;2023-08-20T10:11:25;27.50;99.90
5697;DHT22;2873;50.966;7.210;2023-08-20T10:13:51;27.40;99.90
5697;DHT22;2873;50.966;7.210;2023-08-20T10:16:17;27.30;99.90
5697;DHT22;2873;50.966;7.210;2023-08-20T10:18:46;27.40;99.90
5697;DHT22;2873;50.966;7.210;2023-08-20T10:21:13;27.40;99.90
5697;DHT22;2873;50.966;7.210;2023-08-20T10:23:41;27.50;99.90
5697;DHT22;2873;50.966;7.210;2023-08-20T10:26:09;27.40;99.90
5697;DHT22;2873;50.966;7.210;2023-08-20T10:28:35;27.50;99.90
5697;DHT22;2873;50.966;7.210;2023-08-20T10:33:48;27.50;99.90
5697;DHT22;2873;50.966;7.210;2023-08-20T10:36:18;27.60;99.90
5697;DHT22;2873;50.966;7.210;2023-08-20T10:38:49;27.70;99.90
5697;DHT22;2873;50.966;7.210;2023-08-20T10:41:15;27.80;99.90
5697;DHT22;2873;50.966;7.210;2023-08-20T10:43:47;27.90;99.90
5697;DHT22;2873;50.966;7.210;2023-08-20T10:46:19;27.90;99.90
5697;DHT22;2873;50.966;7.210;2023-08-20T10:48:54;28.00;99.90
5697;DHT22;2873;50.966;7.210;2023-08-20T10:51:28;28.10;99.90
5697;DHT22;2873;50.966;7.210;2023-08-20T10:56:57;28.30;99.90
5697;DHT22;2873;50.966;7.210;2023-08-20T10:59:29;28.30;99.90
5697;DHT22;2873;50.966;7.210;2023-08-20T11:01:57;28.40;99.90
5697;DHT22;2873;50.966;7.210;2023-08-20T11:04:28;28.40;99.90
5697;DHT22;2873;50.966;7.210;2023-08-20T11:06:56;28.40;99.90
5697;DHT22;2873;50.966;7.210;2023-08-20T11:09:29;28.50;99.90
5697;DHT22;2873;50.966;7.210;2023-08-20T11:11:55;28.50;99.90
5697;DHT22;2873;50.966;7.210;2023-08-20T11:14:21;28.70;99.90
5697;DHT22;2873;50.966;7.210;2023-08-20T11:16:48;28.70;99.90
5697;DHT22;2873;50.966;7.210;2023-08-20T11:19:23;28.80;99.90
5697;DHT22;2873;50.966;7.210;2023-08-20T11:21:49;28.90;99.90
5697;DHT22;2873;50.966;7.210;2023-08-20T11:24:16;29.00;99.90
5697;DHT22;2873;50.966;7.210;2023-08-20T11:26:43;29.10;99.90
5697;DHT22;2873;50.966;7.210;2023-08-20T11:29:11;29.10;99.90
5697;DHT22;2873;50.966;7.210;2023-08-20T11:31:38;29.10;99.90
5697;DHT22;2873;50.966;7.210;2023-08-20T11:34:04;29.20;99.90
5697;DHT22;2873;50.966;7.210;2023-08-20T11:36:31;29.40;99.90
5697;DHT22;2873;50.966;7.210;2023-08-20T11:38:56;29.50;99.90
5697;DHT22;2873;50.966;7.210;2023-08-20T11:41:23;29.70;99.90
5697;DHT22;2873;50.966;7.210;2023-08-20T11:43:49;29.90;99.90
5697;DHT22;2873;50.966;7.210;2023-08-20T11:46:18;30.00;99.90
5697;DHT22;2873;50.966;7.210;2023-08-20T11:49:04;30.00;99.90
5697;DHT22;2873;50.966;7.210;2023-08-20T11:51:47;29.90;99.90
5697;DHT22;2873;50.966;7.210;2023-08-20T11:54:14;29.90;99.90
5697;DHT22;2873;50.966;7.210;2023-08-20T11:56:50;30.00;99.90
5697;DHT22;2873;50.966;7.210;2023-08-20T11:59:20;30.20;99.90
5697;DHT22;2873;50.966;7.210;2023-08-20T12:01:54;30.30;99.90
5697;DHT22;2873;50.966;7.210;2023-08-20T12:04:24;30.30;99.90
5697;DHT22;2873;50.966;7.210;2023-08-20T12:07:13;30.40;99.90
5697;DHT22;2873;50.966;7.210;2023-08-20T12:09:39;30.60;99.90
5697;DHT22;2873;50.966;7.210;2023-08-20T12:12:07;30.70;99.90
5697;DHT22;2873;50.966;7.210;2023-08-20T12:14:33;30.90;99.90
5697;DHT22;2873;50.966;7.210;2023-08-20T12:16:59;31.10;99.90
5697;DHT22;2873;50.966;7.210;2023-08-20T12:19:25;31.10;99.90
5697;DHT22;2873;50.966;7.210;2023-08-20T12:21:50;31.30;99.90
5697;DHT22;2873;50.966;7.210;2023-08-20T12:24:17;31.50;99.90
5697;DHT22;2873;50.966;7.210;2023-08-20T12:26:44;31.50;99.90
5697;DHT22;2873;50.966;7.210;2023-08-20T12:29:10;31.60;99.90
5697;DHT22;2873;50.966;7.210;2023-08-20T12:31:36;31.90;99.90
5697;DHT22;2873;50.966;7.210;2023-08-20T12:34:02;31.80;99.90
5697;DHT22;2873;50.966;7.210;2023-08-20T12:36:28;32.20;99.90
5697;DHT22;2873;50.966;7.210;2023-08-20T12:38:54;32.10;99.90
5697;DHT22;2873;50.966;7.210;2023-08-20T12:41:20;32.20;99.90
5697;DHT22;2873;50.966;7.210;2023-08-20T12:43:46;33.40;99.90
5697;DHT22;2873;50.966;7.210;2023-08-20T12:46:11;34.90;99.90
5697;DHT22;2873;50.966;7.210;2023-08-20T12:48:38;35.30;99.90
5697;DHT22;2873;50.966;7.210;2023-08-20T12:51:04;37.00;99.90
5697;DHT22;2873;50.966;7.210;2023-08-20T12:53:29;38.80;99.90
5697;DHT22;2873;50.966;7.210;2023-08-20T12:55:55;40.20;99.90
5697;DHT22;2873;50.966;7.210;2023-08-20T12:58:20;39.90;99.90
5697;DHT22;2873;50.966;7.210;2023-08-20T13:00:46;38.40;99.90
5697;DHT22;2873;50.966;7.210;2023-08-20T13:03:12;38.20;99.90
5697;DHT22;2873;50.966;7.210;2023-08-20T13:05:38;36.90;99.90
5697;DHT22;2873;50.966;7.210;2023-08-20T13:08:04;36.30;99.90
5697;DHT22;2873;50.966;7.210;2023-08-20T13:10:30;38.80;99.90
5697;DHT22;2873;50.966;7.210;2023-08-20T13:12:59;40.70;99.90
5697;DHT22;2873;50.966;7.210;2023-08-20T13:15:25;42.50;99.90
5697;DHT22;2873;50.966;7.210;2023-08-20T13:17:51;43.10;99.00
5697;DHT22;2873;50.966;7.210;2023-08-20T13:20:17;44.30;97.20
5697;DHT22;2873;50.966;7.210;2023-08-20T13:22:48;44.80;97.20
5697;DHT22;2873;50.966;7.210;2023-08-20T13:25:13;43.80;95.50
5697;DHT22;2873;50.966;7.210;2023-08-20T13:27:40;42.10;96.00
5697;DHT22;2873;50.966;7.210;2023-08-20T13:30:07;41.10;95.80
5697;DHT22;2873;50.966;7.210;2023-08-20T13:32:34;40.20;96.40
5697;DHT22;2873;50.966;7.210;2023-08-20T13:34:59;41.90;94.70
5697;DHT22;2873;50.966;7.210;2023-08-20T13:37:25;43.80;94.10
5697;DHT22;2873;50.966;7.210;2023-08-20T13:39:51;44.90;93.00
5697;DHT22;2873;50.966;7.210;2023-08-20T13:42:16;46.10;91.80
5697;DHT22;2873;50.966;7.210;2023-08-20T13:44:42;46.60;91.10
5697;DHT22;2873;50.966;7.210;2023-08-20T13:47:07;47.40;90.40
5697;DHT22;2873;50.966;7.210;2023-08-20T13:49:33;48.50;88.20
5697;DHT22;2873;50.966;7.210;2023-08-20T13:51:58;49.50;86.00
5697;DHT22;2873;50.966;7.210;2023-08-20T13:54:24;50.40;84.20
5697;DHT22;2873;50.966;7.210;2023-08-20T13:56:49;50.90;81.00
5697;DHT22;2873;50.966;7.210;2023-08-20T13:59:15;51.40;78.50
5697;DHT22;2873;50.966;7.210;2023-08-20T14:01:41;49.90;79.40
5697;DHT22;2873;50.966;7.210;2023-08-20T14:04:07;50.40;77.50
5697;DHT22;2873;50.966;7.210;2023-08-20T14:06:32;50.00;78.20
5697;DHT22;2873;50.966;7.210;2023-08-20T14:08:58;50.30;75.80
5697;DHT22;2873;50.966;7.210;2023-08-20T14:11:23;48.60;75.30
5697;DHT22;2873;50.966;7.210;2023-08-20T14:13:49;48.50;76.20
5697;DHT22;2873;50.966;7.210;2023-08-20T14:16:14;48.40;75.40
5697;DHT22;2873;50.966;7.210;2023-08-20T14:18:40;49.00;74.70
5697;DHT22;2873;50.966;7.210;2023-08-20T14:21:06;49.80;74.00
5697;DHT22;2873;50.966;7.210;2023-08-20T14:23:31;50.00;74.10
5697;DHT22;2873;50.966;7.210;2023-08-20T14:25:57;50.10;73.30
5697;DHT22;2873;50.966;7.210;2023-08-20T14:28:23;48.40;73.20
5697;DHT22;2873;50.966;7.210;2023-08-20T14:30:49;46.20;74.70
5697;DHT22;2873;50.966;7.210;2023-08-20T14:33:20;44.60;77.00
5697;DHT22;2873;50.966;7.210;2023-08-20T14:35:46;45.70;77.30
5697;DHT22;2873;50.966;7.210;2023-08-20T14:38:12;44.10;78.20
5697;DHT22;2873;50.966;7.210;2023-08-20T14:40:39;42.80;80.20
5697;DHT22;2873;50.966;7.210;2023-08-20T14:43:06;41.60;81.30
5697;DHT22;2873;50.966;7.210;2023-08-20T14:45:32;40.70;82.30
5697;DHT22;2873;50.966;7.210;2023-08-20T14:47:58;40.10;83.60
5697;DHT22;2873;50.966;7.210;2023-08-20T14:50:24;39.40;84.80
5697;DHT22;2873;50.966;7.210;2023-08-20T14:52:49;38.70;86.50
5697;DHT22;2873;50.966;7.210;2023-08-20T14:55:20;38.20;88.60
5697;DHT22;2873;50.966;7.210;2023-08-20T14:57:47;37.60;89.30
5697;DHT22;2873;50.966;7.210;2023-08-20T15:00:14;37.00;90.20
5697;DHT22;2873;50.966;7.210;2023-08-20T15:02:43;36.70;90.80
5697;DHT22;2873;50.966;7.210;2023-08-20T15:05:10;36.40;91.40
5697;DHT22;2873;50.966;7.210;2023-08-20T15:07:35;36.30;91.80
5697;DHT22;2873;50.966;7.210;2023-08-20T15:10:02;36.00;92.20
5697;DHT22;2873;50.966;7.210;2023-08-20T15:12:28;35.60;92.80
5697;DHT22;2873;50.966;7.210;2023-08-20T15:14:53;35.40;93.40
5697;DHT22;2873;50.966;7.210;2023-08-20T15:17:19;35.20;94.00
5697;DHT22;2873;50.966;7.210;2023-08-20T15:19:45;35.10;94.30
5697;DHT22;2873;50.966;7.210;2023-08-20T15:22:13;35.00;94.00
5697;DHT22;2873;50.966;7.210;2023-08-20T15:24:38;34.90;94.20
5697;DHT22;2873;50.966;7.210;2023-08-20T15:27:04;34.90;95.10
5697;DHT22;2873;50.966;7.210;2023-08-20T15:29:29;34.70;94.80
5697;DHT22;2873;50.966;7.210;2023-08-20T15:31:55;34.70;94.80
5697;DHT22;2873;50.966;7.210;2023-08-20T15:34:20;34.40;94.60
5697;DHT22;2873;50.966;7.210;2023-08-20T15:36:46;34.20;94.70
5697;DHT22;2873;50.966;7.210;2023-08-20T15:39:11;34.10;94.80
5697;DHT22;2873;50.966;7.210;2023-08-20T15:41:38;34.10;95.20
5697;DHT22;2873;50.966;7.210;2023-08-20T15:44:03;34.10;95.70
5697;DHT22;2873;50.966;7.210;2023-08-20T15:46:29;33.80;96.10
5697;DHT22;2873;50.966;7.210;2023-08-20T15:48:54;33.60;97.20
5697;DHT22;2873;50.966;7.210;2023-08-20T15:51:20;33.50;97.40
5697;DHT22;2873;50.966;7.210;2023-08-20T15:53:46;33.60;97.40
5697;DHT22;2873;50.966;7.210;2023-08-20T15:56:12;33.70;97.80
5697;DHT22;2873;50.966;7.210;2023-08-20T15:58:37;33.80;98.10
5697;DHT22;2873;50.966;7.210;2023-08-20T16:01:03;33.70;98.10
5697;DHT22;2873;50.966;7.210;2023-08-20T16:03:29;33.50;97.20
5697;DHT22;2873;50.966;7.210;2023-08-20T16:05:55;33.40;98.10
5697;DHT22;2873;50.966;7.210;2023-08-20T16:08:21;33.40;98.30